sensor_id;sensor_type;location;lat;lon;timestamp;P1;durP1;ratioP1;P2;durP2;ratioP2
8656;SDS011;4366;50.764;7.184;2024-01-30T00:00:50;6.90;;;6.20;;
8656;SDS011;4366;50.764;7.184;2024-01-30T00:05:52;6.90;;;6.20;;
8656;SDS011;4366;50.764;7.184;2024-01-30T00:10:57;8.33;;;6.63;;
8656;SDS011;4366;50.764;7.184;2024-01-30T00:15:58;6.43;;;5.80;;
8656;SDS011;4366;50.764;7.184;2024-01-30T00:21:00;7.47;;;6.13;;
8656;SDS011;4366;50.764;7.184;2024-01-30T00:26:02;8.93;;;6.73;;
8656;SDS011;4366;50.764;7.184;2024-01-30T00:31:04;7.77;;;6.77;;
8656;SDS011;4366;50.764;7.184;2024-01-30T00:36:08;7.90;;;7.10;;
8656;SDS011;4366;50.764;7.184;2024-01-30T00:41:11;7.00;;;6.23;;
8656;SDS011;4366;50.764;7.184;2024-01-30T00:46:13;8.03;;;6.27;;
8656;SDS011;4366;50.764;7.184;2024-01-30T00:51:14;9.47;;;7.00;;
8656;SDS011;4366;50.764;7.184;2024-01-30T00:56:16;9.13;;;6.63;;
8656;SDS011;4366;50.764;7.184;2024-01-30T01:01:19;8.13;;;6.63;;
8656;SDS011;4366;50.764;7.184;2024-01-30T01:06:22;9.13;;;6.53;;
8656;SDS011;4366;50.764;7.184;2024-01-30T01:11:24;7.73;;;6.60;;
8656;SDS011;4366;50.764;7.184;2024-01-30T01:16:26;8.47;;;6.27;;
8656;SDS011;4366;50.764;7.184;2024-01-30T01:21:29;8.73;;;6.60;;
8656;SDS011;4366;50.764;7.184;2024-01-30T01:26:31;8.00;;;5.87;;
8656;SDS011;4366;50.764;7.184;2024-01-30T01:31:33;8.07;;;6.67;;
8656;SDS011;4366;50.764;7.184;2024-01-30T01:36:34;9.37;;;6.63;;
8656;SDS011;4366;50.764;7.184;2024-01-30T01:41:36;8.07;;;6.40;;
8656;SDS011;4366;50.764;7.184;2024-01-30T01:46:38;7.20;;;6.50;;
8656;SDS011;4366;50.764;7.184;2024-01-30T01:51:39;9.10;;;6.20;;
8656;SDS011;4366;50.764;7.184;2024-01-30T01:56:43;7.97;;;5.97;;
8656;SDS011;4366;50.764;7.184;2024-01-30T02:01:45;7.90;;;6.23;;
8656;SDS011;4366;50.764;7.184;2024-01-30T02:06:50;7.17;;;5.80;;
8656;SDS011;4366;50.764;7.184;2024-01-30T02:11:53;8.57;;;5.90;;
8656;SDS011;4366;50.764;7.184;2024-01-30T02:16:55;6.57;;;5.83;;
8656;SDS011;4366;50.764;7.184;2024-01-30T02:21:56;6.30;;;5.70;;
8656;SDS011;4366;50.764;7.184;2024-01-30T02:26:58;7.67;;;6.47;;
8656;SDS011;4366;50.764;7.184;2024-01-30T02:32:00;8.47;;;6.27;;
8656;SDS011;4366;50.764;7.184;2024-01-30T02:37:01;6.80;;;6.10;;
8656;SDS011;4366;50.764;7.184;2024-01-30T02:42:04;6.20;;;5.60;;
8656;SDS011;4366;50.764;7.184;2024-01-30T02:47:05;8.60;;;6.20;;
8656;SDS011;4366;50.764;7.184;2024-01-30T02:52:08;10.10;;;6.53;;
8656;SDS011;4366;50.764;7.184;2024-01-30T02:57:09;8.40;;;6.03;;
8656;SDS011;4366;50.764;7.184;2024-01-30T03:02:11;7.53;;;6.17;;
8656;SDS011;4366;50.764;7.184;2024-01-30T03:07:13;6.67;;;6.07;;
8656;SDS011;4366;50.764;7.184;2024-01-30T03:12:15;10.63;;;6.77;;
8656;SDS011;4366;50.764;7.184;2024-01-30T03:17:16;7.13;;;6.40;;
8656;SDS011;4366;50.764;7.184;2024-01-30T03:22:18;10.03;;;6.27;;
8656;SDS011;4366;50.764;7.184;2024-01-30T03:27:20;6.63;;;6.03;;
8656;SDS011;4366;50.764;7.184;2024-01-30T03:32:22;6.83;;;5.77;;
8656;SDS011;4366;50.764;7.184;2024-01-30T03:37:24;8.50;;;6.17;;
8656;SDS011;4366;50.764;7.184;2024-01-30T03:42:26;7.87;;;6.63;;
8656;SDS011;4366;50.764;7.184;2024-01-30T03:47:29;6.20;;;5.57;;
8656;SDS011;4366;50.764;7.184;2024-01-30T03:52:30;7.20;;;6.50;;
8656;SDS011;4366;50.764;7.184;2024-01-30T03:57:32;7.50;;;5.50;;
8656;SDS011;4366;50.764;7.184;2024-01-30T04:02:34;8.10;;;6.13;;
8656;SDS011;4366;50.764;7.184;2024-01-30T04:07:35;6.43;;;5.83;;
8656;SDS011;4366;50.764;7.184;2024-01-30T04:12:37;6.30;;;5.70;;
8656;SDS011;4366;50.764;7.184;2024-01-30T04:17:39;6.50;;;5.80;;
8656;SDS011;4366;50.764;7.184;2024-01-30T04:22:44;8.30;;;5.33;;
8656;SDS011;4366;50.764;7.184;2024-01-30T04:27:46;5.90;;;5.33;;
8656;SDS011;4366;50.764;7.184;2024-01-30T04:32:48;6.33;;;5.73;;
8656;SDS011;4366;50.764;7.184;2024-01-30T04:37:51;5.67;;;5.17;;
8656;SDS011;4366;50.764;7.184;2024-01-30T04:42:54;6.00;;;5.40;;
8656;SDS011;4366;50.764;7.184;2024-01-30T04:47:55;6.40;;;5.70;;
8656;SDS011;4366;50.764;7.184;2024-01-30T04:52:57;6.17;;;5.23;;
8656;SDS011;4366;50.764;7.184;2024-01-30T04:57:59;7.47;;;5.77;;
8656;SDS011;4366;50.764;7.184;2024-01-30T05:03:01;6.33;;;5.70;;
8656;SDS011;4366;50.764;7.184;2024-01-30T05:08:02;8.03;;;6.57;;
8656;SDS011;4366;50.764;7.184;2024-01-30T05:13:04;6.73;;;5.93;;
8656;SDS011;4366;50.764;7.184;2024-01-30T05:18:06;6.87;;;5.70;;
8656;SDS011;4366;50.764;7.184;2024-01-30T05:23:08;8.90;;;6.47;;
8656;SDS011;4366;50.764;7.184;2024-01-30T05:28:10;7.23;;;6.43;;
8656;SDS011;4366;50.764;7.184;2024-01-30T05:33:11;7.43;;;6.13;;
8656;SDS011;4366;50.764;7.184;2024-01-30T05:38:17;7.07;;;6.07;;
8656;SDS011;4366;50.764;7.184;2024-01-30T05:43:19;6.93;;;6.33;;
8656;SDS011;4366;50.764;7.184;2024-01-30T05:48:22;9.10;;;6.70;;
8656;SDS011;4366;50.764;7.184;2024-01-30T05:53:24;7.67;;;6.73;;
8656;SDS011;4366;50.764;7.184;2024-01-30T05:58:25;7.67;;;6.50;;
8656;SDS011;4366;50.764;7.184;2024-01-30T06:03:27;8.83;;;6.47;;
8656;SDS011;4366;50.764;7.184;2024-01-30T06:08:29;10.75;;;7.88;;
8656;SDS011;4366;50.764;7.184;2024-01-30T06:13:31;9.10;;;5.90;;
8656;SDS011;4366;50.764;7.184;2024-01-30T06:18:33;6.70;;;6.00;;
8656;SDS011;4366;50.764;7.184;2024-01-30T06:23:35;7.20;;;5.80;;
8656;SDS011;4366;50.764;7.184;2024-01-30T06:28:36;7.30;;;6.07;;
8656;SDS011;4366;50.764;7.184;2024-01-30T06:33:38;7.97;;;5.93;;
8656;SDS011;4366;50.764;7.184;2024-01-30T06:38:40;8.40;;;7.00;;
8656;SDS011;4366;50.764;7.184;2024-01-30T06:43:42;7.70;;;6.57;;
8656;SDS011;4366;50.764;7.184;2024-01-30T06:48:49;8.07;;;6.57;;
8656;SDS011;4366;50.764;7.184;2024-01-30T06:53:50;8.53;;;6.10;;
8656;SDS011;4366;50.764;7.184;2024-01-30T06:58:53;6.53;;;5.87;;
8656;SDS011;4366;50.764;7.184;2024-01-30T07:03:54;6.40;;;5.70;;
8656;SDS011;4366;50.764;7.184;2024-01-30T07:08:56;6.93;;;6.07;;
8656;SDS011;4366;50.764;7.184;2024-01-30T07:13:58;8.90;;;6.40;;
8656;SDS011;4366;50.764;7.184;2024-01-30T07:19:00;9.57;;;6.23;;
8656;SDS011;4366;50.764;7.184;2024-01-30T07:24:01;7.93;;;6.53;;
8656;SDS011;4366;50.764;7.184;2024-01-30T07:29:03;6.27;;;5.50;;
8656;SDS011;4366;50.764;7.184;2024-01-30T07:34:05;10.37;;;6.50;;
8656;SDS011;4366;50.764;7.184;2024-01-30T07:39:08;6.93;;;5.90;;
8656;SDS011;4366;50.764;7.184;2024-01-30T07:44:09;6.93;;;5.50;;
8656;SDS011;4366;50.764;7.184;2024-01-30T07:49:11;8.50;;;6.57;;
8656;SDS011;4366;50.764;7.184;2024-01-30T07:54:13;8.37;;;6.07;;
8656;SDS011;4366;50.764;7.184;2024-01-30T07:59:15;6.97;;;5.87;;
8656;SDS011;4366;50.764;7.184;2024-01-30T08:04:16;8.60;;;6.00;;
8656;SDS011;4366;50.764;7.184;2024-01-30T08:09:19;8.07;;;6.20;;
8656;SDS011;4366;50.764;7.184;2024-01-30T08:14:21;8.03;;;5.97;;
8656;SDS011;4366;50.764;7.184;2024-01-30T08:19:23;7.23;;;5.77;;
8656;SDS011;4366;50.764;7.184;2024-01-30T08:24:24;7.00;;;5.50;;
8656;SDS011;4366;50.764;7.184;2024-01-30T08:29:26;7.40;;;6.00;;
8656;SDS011;4366;50.764;7.184;2024-01-30T08:34:28;6.57;;;5.90;;
8656;SDS011;4366;50.764;7.184;2024-01-30T08:39:30;6.13;;;5.53;;
8656;SDS011;4366;50.764;7.184;2024-01-30T08:50:02;7.57;;;5.80;;
8656;SDS011;4366;50.764;7.184;2024-01-30T08:55:04;7.87;;;5.67;;
8656;SDS011;4366;50.764;7.184;2024-01-30T09:00:06;7.97;;;5.70;;
8656;SDS011;4366;50.764;7.184;2024-01-30T09:05:10;6.40;;;5.77;;
8656;SDS011;4366;50.764;7.184;2024-01-30T09:10:12;6.93;;;5.80;;
8656;SDS011;4366;50.764;7.184;2024-01-30T09:15:16;7.63;;;6.23;;
8656;SDS011;4366;50.764;7.184;2024-01-30T09:20:17;7.80;;;5.53;;
8656;SDS011;4366;50.764;7.184;2024-01-30T09:25:21;8.40;;;6.30;;
8656;SDS011;4366;50.764;7.184;2024-01-30T09:30:23;7.43;;;6.63;;
8656;SDS011;4366;50.764;7.184;2024-01-30T09:35:24;7.77;;;6.97;;
8656;SDS011;4366;50.764;7.184;2024-01-30T09:40:26;8.33;;;6.40;;
8656;SDS011;4366;50.764;7.184;2024-01-30T09:45:28;6.60;;;5.80;;
8656;SDS011;4366;50.764;7.184;2024-01-30T09:50:33;6.07;;;5.47;;
8656;SDS011;4366;50.764;7.184;2024-01-30T09:55:37;6.27;;;5.03;;
8656;SDS011;4366;50.764;7.184;2024-01-30T10:00:39;5.17;;;4.70;;
8656;SDS011;4366;50.764;7.184;2024-01-30T10:05:42;5.80;;;4.80;;
8656;SDS011;4366;50.764;7.184;2024-01-30T10:10:52;5.37;;;4.00;;
8656;SDS011;4366;50.764;7.184;2024-01-30T10:15:54;4.30;;;3.90;;
8656;SDS011;4366;50.764;7.184;2024-01-30T10:20:56;4.50;;;4.10;;
8656;SDS011;4366;50.764;7.184;2024-01-30T10:25:59;4.50;;;3.50;;
8656;SDS011;4366;50.764;7.184;2024-01-30T10:31:01;4.60;;;3.60;;
8656;SDS011;4366;50.764;7.184;2024-01-30T10:36:07;5.23;;;3.60;;
8656;SDS011;4366;50.764;7.184;2024-01-30T10:41:09;3.50;;;3.20;;
8656;SDS011;4366;50.764;7.184;2024-01-30T10:46:17;4.30;;;3.80;;
8656;SDS011;4366;50.764;7.184;2024-01-30T10:51:20;4.03;;;3.47;;
8656;SDS011;4366;50.764;7.184;2024-01-30T10:56:24;5.87;;;3.70;;
8656;SDS011;4366;50.764;7.184;2024-01-30T11:01:26;4.37;;;3.53;;
8656;SDS011;4366;50.764;7.184;2024-01-30T11:06:29;5.60;;;3.37;;
8656;SDS011;4366;50.764;7.184;2024-01-30T11:11:31;3.73;;;3.30;;
8656;SDS011;4366;50.764;7.184;2024-01-30T11:16:32;3.73;;;3.30;;
8656;SDS011;4366;50.764;7.184;2024-01-30T11:21:38;4.27;;;3.37;;
8656;SDS011;4366;50.764;7.184;2024-01-30T11:26:42;4.10;;;3.23;;
8656;SDS011;4366;50.764;7.184;2024-01-30T11:31:57;5.87;;;3.90;;
8656;SDS011;4366;50.764;7.184;2024-01-30T11:37:03;4.13;;;3.73;;
8656;SDS011;4366;50.764;7.184;2024-01-30T11:42:06;5.17;;;3.30;;
8656;SDS011;4366;50.764;7.184;2024-01-30T11:47:10;4.13;;;3.40;;
8656;SDS011;4366;50.764;7.184;2024-01-30T11:52:11;4.00;;;3.63;;
8656;SDS011;4366;50.764;7.184;2024-01-30T11:57:14;5.20;;;3.50;;
8656;SDS011;4366;50.764;7.184;2024-01-30T12:02:16;4.53;;;3.43;;
8656;SDS011;4366;50.764;7.184;2024-01-30T12:07:18;6.07;;;3.83;;
8656;SDS011;4366;50.764;7.184;2024-01-30T12:12:24;4.50;;;3.40;;
8656;SDS011;4366;50.764;7.184;2024-01-30T12:17:30;4.63;;;3.50;;
8656;SDS011;4366;50.764;7.184;2024-01-30T12:27:44;4.27;;;3.07;;
8656;SDS011;4366;50.764;7.184;2024-01-30T12:32:49;3.40;;;3.10;;
8656;SDS011;4366;50.764;7.184;2024-01-30T12:37:51;3.70;;;3.37;;
8656;SDS011;4366;50.764;7.184;2024-01-30T12:42:53;4.53;;;3.50;;
8656;SDS011;4366;50.764;7.184;2024-01-30T12:47:55;3.53;;;3.23;;
8656;SDS011;4366;50.764;7.184;2024-01-30T12:52:56;3.07;;;2.77;;
8656;SDS011;4366;50.764;7.184;2024-01-30T12:58:00;3.30;;;3.00;;
8656;SDS011;4366;50.764;7.184;2024-01-30T13:03:02;4.67;;;3.23;;
8656;SDS011;4366;50.764;7.184;2024-01-30T13:08:04;3.53;;;3.07;;
8656;SDS011;4366;50.764;7.184;2024-01-30T13:13:06;3.57;;;3.00;;
8656;SDS011;4366;50.764;7.184;2024-01-30T13:18:17;4.67;;;3.40;;
8656;SDS011;4366;50.764;7.184;2024-01-30T13:23:19;4.97;;;3.20;;
8656;SDS011;4366;50.764;7.184;2024-01-30T13:28:21;3.80;;;3.43;;
8656;SDS011;4366;50.764;7.184;2024-01-30T13:33:22;3.80;;;3.37;;
8656;SDS011;4366;50.764;7.184;2024-01-30T13:38:24;5.47;;;3.47;;
8656;SDS011;4366;50.764;7.184;2024-01-30T13:43:25;4.47;;;3.50;;
8656;SDS011;4366;50.764;7.184;2024-01-30T13:48:27;3.80;;;3.20;;
8656;SDS011;4366;50.764;7.184;2024-01-30T13:53:29;4.80;;;3.13;;
8656;SDS011;4366;50.764;7.184;2024-01-30T13:58:30;4.07;;;3.47;;
8656;SDS011;4366;50.764;7.184;2024-01-30T14:03:35;4.83;;;3.73;;
8656;SDS011;4366;50.764;7.184;2024-01-30T14:08:36;3.97;;;3.40;;
8656;SDS011;4366;50.764;7.184;2024-01-30T14:13:38;4.50;;;3.60;;
8656;SDS011;4366;50.764;7.184;2024-01-30T14:18:40;4.70;;;3.40;;
8656;SDS011;4366;50.764;7.184;2024-01-30T14:23:43;6.07;;;3.23;;
8656;SDS011;4366;50.764;7.184;2024-01-30T14:28:44;3.83;;;3.33;;
8656;SDS011;4366;50.764;7.184;2024-01-30T14:33:48;4.83;;;3.70;;
8656;SDS011;4366;50.764;7.184;2024-01-30T14:38:49;4.07;;;3.50;;
8656;SDS011;4366;50.764;7.184;2024-01-30T14:43:51;3.83;;;3.53;;
8656;SDS011;4366;50.764;7.184;2024-01-30T14:48:52;4.47;;;4.07;;
8656;SDS011;4366;50.764;7.184;2024-01-30T14:53:54;4.60;;;4.13;;
8656;SDS011;4366;50.764;7.184;2024-01-30T14:58:56;4.47;;;4.07;;
8656;SDS011;4366;50.764;7.184;2024-01-30T15:03:57;4.40;;;4.00;;
8656;SDS011;4366;50.764;7.184;2024-01-30T15:08:59;4.87;;;3.83;;
8656;SDS011;4366;50.764;7.184;2024-01-30T15:14:01;4.93;;;3.30;;
8656;SDS011;4366;50.764;7.184;2024-01-30T15:19:02;4.63;;;4.03;;
8656;SDS011;4366;50.764;7.184;2024-01-30T15:24:06;4.10;;;3.80;;
8656;SDS011;4366;50.764;7.184;2024-01-30T15:29:08;4.23;;;3.20;;
8656;SDS011;4366;50.764;7.184;2024-01-30T15:34:09;5.07;;;4.00;;
8656;SDS011;4366;50.764;7.184;2024-01-30T15:39:11;4.73;;;4.00;;
8656;SDS011;4366;50.764;7.184;2024-01-30T15:44:16;4.37;;;3.50;;
8656;SDS011;4366;50.764;7.184;2024-01-30T15:49:17;4.23;;;3.77;;
8656;SDS011;4366;50.764;7.184;2024-01-30T15:54:19;7.20;;;4.30;;
8656;SDS011;4366;50.764;7.184;2024-01-30T15:59:21;3.87;;;3.57;;
8656;SDS011;4366;50.764;7.184;2024-01-30T16:04:23;5.57;;;4.17;;
8656;SDS011;4366;50.764;7.184;2024-01-30T16:09:26;5.33;;;4.30;;
8656;SDS011;4366;50.764;7.184;2024-01-30T16:14:28;6.63;;;4.10;;
8656;SDS011;4366;50.764;7.184;2024-01-30T16:19:29;5.40;;;4.57;;
8656;SDS011;4366;50.764;7.184;2024-01-30T16:24:31;5.37;;;4.87;;
8656;SDS011;4366;50.764;7.184;2024-01-30T16:29:33;5.00;;;4.50;;
8656;SDS011;4366;50.764;7.184;2024-01-30T16:34:36;6.37;;;4.60;;
8656;SDS011;4366;50.764;7.184;2024-01-30T16:39:38;4.97;;;4.23;;
8656;SDS011;4366;50.764;7.184;2024-01-30T16:44:40;5.10;;;4.43;;
8656;SDS011;4366;50.764;7.184;2024-01-30T16:49:41;5.03;;;4.63;;
8656;SDS011;4366;50.764;7.184;2024-01-30T16:54:43;6.13;;;4.63;;
8656;SDS011;4366;50.764;7.184;2024-01-30T16:59:45;6.80;;;4.43;;
8656;SDS011;4366;50.764;7.184;2024-01-30T17:04:46;5.60;;;4.60;;
8656;SDS011;4366;50.764;7.184;2024-01-30T17:09:48;7.00;;;4.30;;
8656;SDS011;4366;50.764;7.184;2024-01-30T17:14:50;5.17;;;4.20;;
8656;SDS011;4366;50.764;7.184;2024-01-30T17:19:52;7.30;;;4.30;;
8656;SDS011;4366;50.764;7.184;2024-01-30T17:24:53;4.03;;;3.47;;
8656;SDS011;4366;50.764;7.184;2024-01-30T17:29:56;3.33;;;3.03;;
8656;SDS011;4366;50.764;7.184;2024-01-30T17:34:57;2.90;;;2.70;;
8656;SDS011;4366;50.764;7.184;2024-01-30T17:39:59;3.37;;;2.43;;
8656;SDS011;4366;50.764;7.184;2024-01-30T17:45:01;4.07;;;2.80;;
8656;SDS011;4366;50.764;7.184;2024-01-30T17:50:04;4.33;;;3.03;;
8656;SDS011;4366;50.764;7.184;2024-01-30T17:55:06;4.80;;;2.50;;
8656;SDS011;4366;50.764;7.184;2024-01-30T18:00:08;2.23;;;2.13;;
8656;SDS011;4366;50.764;7.184;2024-01-30T18:05:11;1.80;;;1.70;;
8656;SDS011;4366;50.764;7.184;2024-01-30T18:10:13;2.07;;;1.70;;
8656;SDS011;4366;50.764;7.184;2024-01-30T18:15:20;1.80;;;1.70;;
8656;SDS011;4366;50.764;7.184;2024-01-30T18:20:21;1.90;;;1.80;;
8656;SDS011;4366;50.764;7.184;2024-01-30T18:25:23;1.83;;;1.73;;
8656;SDS011;4366;50.764;7.184;2024-01-30T18:30:25;1.97;;;1.80;;
8656;SDS011;4366;50.764;7.184;2024-01-30T18:35:27;2.20;;;1.90;;
8656;SDS011;4366;50.764;7.184;2024-01-30T18:40:29;1.97;;;1.30;;
8656;SDS011;4366;50.764;7.184;2024-01-30T18:45:31;1.83;;;1.50;;
8656;SDS011;4366;50.764;7.184;2024-01-30T18:50:33;1.27;;;1.27;;
8656;SDS011;4366;50.764;7.184;2024-01-30T18:55:34;2.23;;;1.70;;
8656;SDS011;4366;50.764;7.184;2024-01-30T19:00:36;1.43;;;1.40;;
8656;SDS011;4366;50.764;7.184;2024-01-30T19:05:40;1.57;;;1.40;;
8656;SDS011;4366;50.764;7.184;2024-01-30T19:10:42;1.93;;;1.60;;
8656;SDS011;4366;50.764;7.184;2024-01-30T19:15:45;1.70;;;1.57;;
8656;SDS011;4366;50.764;7.184;2024-01-30T19:20:47;2.33;;;1.60;;
8656;SDS011;4366;50.764;7.184;2024-01-30T19:25:49;2.47;;;1.93;;
8656;SDS011;4366;50.764;7.184;2024-01-30T19:30:51;5.23;;;1.90;;
8656;SDS011;4366;50.764;7.184;2024-01-30T19:35:53;2.07;;;1.77;;
8656;SDS011;4366;50.764;7.184;2024-01-30T19:40:54;2.90;;;1.60;;
8656;SDS011;4366;50.764;7.184;2024-01-30T19:45:58;1.73;;;1.63;;
8656;SDS011;4366;50.764;7.184;2024-01-30T19:51:00;3.47;;;1.67;;
8656;SDS011;4366;50.764;7.184;2024-01-30T19:56:02;2.43;;;2.13;;
8656;SDS011;4366;50.764;7.184;2024-01-30T20:01:05;1.73;;;1.43;;
8656;SDS011;4366;50.764;7.184;2024-01-30T20:06:07;3.23;;;1.87;;
8656;SDS011;4366;50.764;7.184;2024-01-30T20:11:12;1.70;;;1.60;;
8656;SDS011;4366;50.764;7.184;2024-01-30T20:16:15;1.70;;;1.60;;
8656;SDS011;4366;50.764;7.184;2024-01-30T20:21:17;2.00;;;1.80;;
8656;SDS011;4366;50.764;7.184;2024-01-30T20:26:18;1.57;;;1.47;;
8656;SDS011;4366;50.764;7.184;2024-01-30T20:31:20;1.67;;;1.57;;
8656;SDS011;4366;50.764;7.184;2024-01-30T20:36:25;1.50;;;1.40;;
8656;SDS011;4366;50.764;7.184;2024-01-30T20:41:27;2.83;;;1.70;;
8656;SDS011;4366;50.764;7.184;2024-01-30T20:46:28;1.37;;;1.37;;
8656;SDS011;4366;50.764;7.184;2024-01-30T20:51:31;1.60;;;1.50;;
8656;SDS011;4366;50.764;7.184;2024-01-30T20:56:32;2.57;;;1.90;;
8656;SDS011;4366;50.764;7.184;2024-01-30T21:01:34;1.40;;;1.30;;
8656;SDS011;4366;50.764;7.184;2024-01-30T21:06:36;1.30;;;1.30;;
8656;SDS011;4366;50.764;7.184;2024-01-30T21:11:37;1.90;;;1.80;;
8656;SDS011;4366;50.764;7.184;2024-01-30T21:16:39;1.70;;;1.60;;
8656;SDS011;4366;50.764;7.184;2024-01-30T21:21:41;2.00;;;1.90;;
8656;SDS011;4366;50.764;7.184;2024-01-30T21:26:43;1.50;;;1.40;;
8656;SDS011;4366;50.764;7.184;2024-01-30T21:31:45;1.57;;;1.37;;
8656;SDS011;4366;50.764;7.184;2024-01-30T21:36:48;1.80;;;1.70;;
8656;SDS011;4366;50.764;7.184;2024-01-30T21:41:49;1.77;;;1.60;;
8656;SDS011;4366;50.764;7.184;2024-01-30T21:46:51;1.80;;;1.70;;
8656;SDS011;4366;50.764;7.184;2024-01-30T21:51:53;3.10;;;2.10;;
8656;SDS011;4366;50.764;7.184;2024-01-30T21:56:55;2.27;;;2.00;;
8656;SDS011;4366;50.764;7.184;2024-01-30T22:01:57;1.80;;;1.70;;
8656;SDS011;4366;50.764;7.184;2024-01-30T22:06:59;2.40;;;1.63;;
8656;SDS011;4366;50.764;7.184;2024-01-30T22:12:01;1.80;;;1.70;;
8656;SDS011;4366;50.764;7.184;2024-01-30T22:17:02;2.83;;;2.07;;
8656;SDS011;4366;50.764;7.184;2024-01-30T22:22:04;1.90;;;1.80;;
8656;SDS011;4366;50.764;7.184;2024-01-30T22:27:06;1.80;;;1.70;;
8656;SDS011;4366;50.764;7.184;2024-01-30T22:32:08;2.07;;;1.80;;
8656;SDS011;4366;50.764;7.184;2024-01-30T22:37:09;1.60;;;1.50;;
8656;SDS011;4366;50.764;7.184;2024-01-30T22:42:11;2.80;;;2.10;;
8656;SDS011;4366;50.764;7.184;2024-01-30T22:47:13;2.50;;;2.30;;
8656;SDS011;4366;50.764;7.184;2024-01-30T22:52:14;2.57;;;2.43;;
8656;SDS011;4366;50.764;7.184;2024-01-30T22:57:16;2.80;;;2.53;;
8656;SDS011;4366;50.764;7.184;2024-01-30T23:02:18;2.87;;;2.40;;
8656;SDS011;4366;50.764;7.184;2024-01-30T23:07:19;2.27;;;2.07;;
8656;SDS011;4366;50.764;7.184;2024-01-30T23:12:21;2.70;;;2.40;;
8656;SDS011;4366;50.764;7.184;2024-01-30T23:17:23;2.80;;;1.97;;
8656;SDS011;4366;50.764;7.184;2024-01-30T23:22:25;2.17;;;2.00;;
8656;SDS011;4366;50.764;7.184;2024-01-30T23:27:28;2.17;;;2.07;;
8656;SDS011;4366;50.764;7.184;2024-01-30T23:32:30;3.00;;;2.30;;
8656;SDS011;4366;50.764;7.184;2024-01-30T23:37:43;2.77;;;2.40;;
8656;SDS011;4366;50.764;7.184;2024-01-30T23:42:44;2.37;;;2.20;;
8656;SDS011;4366;50.764;7.184;2024-01-30T23:47:46;2.50;;;2.30;;
8656;SDS011;4366;50.764;7.184;2024-01-30T23:52:48;2.80;;;2.43;;
8656;SDS011;4366;50.764;7.184;2024-01-30T23:57:50;2.80;;;2.60;;
